LIPR/RMI METAR and TAF weather

Enter ICAO airport designator
Station Type Date Time Source
LIPR METAR 2019/10/22 17:20 UTC NOAA

LIPR 221720Z 18001KT 8000 FEW010 17/15 Q1022


Station Type Date Time Source
LIPR Decoded METAR 2019/10/22 17:20 UTC NOAA

Rimini, Italy (LIPR) 44-02N 012-37E 13M
Oct 22, 2019 - 01:20 PM EDT / 2019.10.22 1720 UTC
Wind: from the S (180 degrees) at 1 MPH (1 KT):0
Visibility: 4 mile(s):0
Sky conditions: mostly clear
Temperature: 62 F (17 C)
Dew Point: 59 F (15 C)
Relative Humidity: 88%
Pressure (altimeter): 30.18 in. Hg (1022 hPa)
ob: LIPR 221720Z 18001KT 8000 FEW010 17/15 Q1022
cycle: 17

Station Type Date Time Source
LIPR TAF 2016/08/23 03:00 UTC NOAA

TAF LIPR 230200Z 2303/2312 04007KT CAVOK
BECMG 2308/2310 02010KT

Example: see airport list